Terminal Aerodrome Forecast
Issued by NWS

Home | Current Version | Previous Version | Text Only | Print | Product List | Glossary On
Versions: 1 2 3 4 5 6 7 8 9 10 11 12 13 14 15 16 17 18
000
FTUS43 KGRR 300635 AAA
TAFJXN
TAF AMD
KJXN 300635Z 3007/3106 23006KT P6SM SCT100
     FM301200 25006KT 5SM -SHRA BR OVC015
     FM301800 33006KT 2SM -RA BR OVC012
     FM302200 01012G22KT 2SM -RA BR OVC005
     FM310400 35014G24KT 3SM -RA BR OVC009=

USA.gov is the U.S. government's official web portal to all federal, state and local government web resources and services.